Time;durP1;ratioP1;P1;durP2;ratioP2;P2;SDS_P1;SDS_P2;PMS_P1;PMS_P2;Temp;Humidity;BMP_temperature;BMP_pressure;BME280_temperature;BME280_humidity;BME280_pressure;Samples;Min_cycle;Max_cycle;Signal;HPM_P1;HPM_P2
2021/08/25 00:01:23;;;;;;;11.50;6.92;;;;;;;19.75;77.10;101086.54;1898968;75;21141;-59
2021/08/25 00:03:51;;;;;;;12.10;6.92;;;;;;;19.72;77.21;101089.42;1898815;75;21037;-59
2021/08/25 00:06:20;;;;;;;15.32;7.28;;;;;;;19.67;77.30;101083.06;1898676;75;21063;-59
2021/08/25 00:08:48;;;;;;;14.73;7.28;;;;;;;19.65;77.34;101081.83;1898808;75;21042;-59
2021/08/25 00:11:17;;;;;;;11.78;6.97;;;;;;;19.62;77.37;101083.86;1898954;75;21119;-59
2021/08/25 00:13:46;;;;;;;15.53;7.17;;;;;;;19.58;77.45;101085.90;1898795;75;21586;-59
2021/08/25 00:16:15;;;;;;;14.28;7.12;;;;;;;19.55;77.46;101080.80;1898791;75;21180;-59
2021/08/25 00:18:44;;;;;;;13.30;6.62;;;;;;;19.50;77.47;101085.61;1898757;75;21509;-60
2021/08/25 00:21:12;;;;;;;14.25;7.00;;;;;;;19.47;77.51;101085.81;1898819;75;21163;-59
2021/08/25 00:23:41;;;;;;;11.73;6.08;;;;;;;19.44;77.45;101087.36;1898815;75;21046;-59
2021/08/25 00:26:10;;;;;;;11.43;5.97;;;;;;;19.40;77.51;101089.88;1898901;75;21108;-59
2021/08/25 00:28:39;;;;;;;13.15;6.05;;;;;;;19.35;77.55;101083.55;1898875;75;21045;-59
2021/08/25 00:31:07;;;;;;;10.70;5.60;;;;;;;19.33;77.50;101085.93;1898796;75;21063;-59
2021/08/25 00:33:36;;;;;;;12.85;6.00;;;;;;;19.30;77.50;101091.02;1898801;75;21030;-59
2021/08/25 00:36:05;;;;;;;10.90;5.78;;;;;;;19.26;77.49;101086.38;1898941;75;21151;-59
2021/08/25 00:38:34;;;;;;;13.60;6.37;;;;;;;19.24;77.42;101088.30;1898776;75;21050;-59
2021/08/25 00:41:03;;;;;;;11.97;5.80;;;;;;;19.21;77.43;101087.17;1898783;75;21139;-59
2021/08/25 00:43:32;;;;;;;12.65;6.72;;;;;;;19.21;77.43;101085.83;1898793;75;21485;-59
2021/08/25 00:46:01;;;;;;;12.35;6.17;;;;;;;19.19;77.39;101083.75;1898567;75;21077;-60
2021/08/25 00:48:30;;;;;;;11.95;6.55;;;;;;;19.17;77.40;101077.67;1898777;75;21052;-59
2021/08/25 00:50:59;;;;;;;16.12;6.40;;;;;;;19.15;77.52;101076.09;1898976;75;21085;-59
2021/08/25 00:53:28;;;;;;;13.75;6.87;;;;;;;19.14;77.51;101073.03;1898896;75;21488;-59
2021/08/25 00:55:58;;;;;;;11.20;6.22;;;;;;;19.14;77.43;101074.36;1898792;75;21037;-59
2021/08/25 00:58:28;;;;;;;12.93;6.33;;;;;;;19.09;77.46;101072.88;1898661;75;21112;-60
2021/08/25 01:01:07;;;;;;;11.95;6.30;;;;;;;19.08;77.44;101067.64;1898884;75;21103;-59
2021/08/25 01:03:42;;;;;;;13.60;5.97;;;;;;;19.05;77.42;101071.84;1898872;75;21050;-59
2021/08/25 01:06:13;;;;;;;15.08;6.35;;;;;;;19.05;77.42;101082.52;1898732;75;21046;-59
2021/08/25 01:08:43;;;;;;;16.35;6.30;;;;;;;19.02;77.41;101071.59;1898752;75;21582;-60
2021/08/25 01:11:12;;;;;;;13.10;6.58;;;;;;;19.01;77.50;101067.69;1898861;75;21093;-59
2021/08/25 01:13:42;;;;;;;10.23;6.47;;;;;;;19.00;77.50;101064.66;1898751;75;21148;-59
2021/08/25 01:16:11;;;;;;;10.20;6.55;;;;;;;18.96;77.55;101061.81;1898729;75;21501;-59
2021/08/25 01:18:42;;;;;;;14.15;5.85;;;;;;;18.91;77.64;101060.81;1898790;75;21006;-59
2021/08/25 01:21:11;;;;;;;15.93;7.30;;;;;;;18.88;77.74;101057.86;1898909;75;21074;-59
2021/08/25 01:23:43;;;;;;;15.15;6.72;;;;;;;18.85;77.76;101060.75;1898654;75;21571;-59
2021/08/25 01:26:19;;;;;;;10.15;6.03;;;;;;;18.83;77.82;101063.13;1898691;75;21046;-59
2021/08/25 01:28:47;;;;;;;9.10;5.42;;;;;;;18.80;77.91;101064.18;1897540;75;21128;-59
2021/08/25 01:31:16;;;;;;;12.05;6.17;;;;;;;18.78;77.95;101063.92;1898692;75;21121;-59
2021/08/25 01:33:45;;;;;;;12.23;5.60;;;;;;;18.74;78.05;101057.94;1898953;75;21550;-60
2021/08/25 01:36:16;;;;;;;13.25;6.08;;;;;;;18.71;78.12;101066.14;1898727;75;21115;-59
2021/08/25 01:38:54;;;;;;;11.78;5.92;;;;;;;18.69;78.12;101062.73;1898064;75;21489;-59
2021/08/25 01:41:24;;;;;;;12.95;5.85;;;;;;;18.67;78.16;101060.16;1898772;75;21497;-59
2021/08/25 01:43:58;;;;;;;16.67;6.53;;;;;;;18.63;78.30;101053.82;1898736;75;21054;-59
2021/08/25 01:46:35;;;;;;;11.40;5.95;;;;;;;18.59;78.37;101063.84;1896953;75;21082;-60
2021/08/25 01:49:09;;;;;;;12.15;6.53;;;;;;;18.57;78.44;101060.88;1893117;75;21073;-59
2021/08/25 01:51:40;;;;;;;13.18;6.47;;;;;;;18.55;78.52;101058.80;1898771;75;21046;-59
2021/08/25 01:54:12;;;;;;;15.18;6.58;;;;;;;18.52;78.62;101055.39;1898757;75;21085;-59
2021/08/25 01:56:44;;;;;;;10.38;6.28;;;;;;;18.50;78.73;101056.47;1899041;75;21022;-59
2021/08/25 01:59:12;;;;;;;16.12;5.90;;;;;;;18.49;78.71;101055.59;1899127;75;21579;-59
2021/08/25 02:01:41;;;;;;;11.18;5.53;;;;;;;18.45;78.79;101055.42;1899048;75;21123;-59
2021/08/25 02:04:10;;;;;;;10.23;6.10;;;;;;;18.44;78.86;101060.40;1899034;75;21046;-59
2021/08/25 02:06:38;;;;;;;15.28;6.10;;;;;;;18.42;78.83;101059.62;1899102;75;21041;-59
2021/08/25 02:09:07;;;;;;;9.60;5.85;;;;;;;18.40;78.86;101058.87;1899076;75;21046;-59
2021/08/25 02:11:36;;;;;;;10.88;5.60;;;;;;;18.38;78.92;101056.78;1898958;75;21101;-59
2021/08/25 02:14:05;;;;;;;15.78;6.60;;;;;;;18.36;78.89;101053.38;1899127;75;21050;-59
2021/08/25 02:16:34;;;;;;;11.63;5.97;;;;;;;18.36;78.83;101053.38;1899055;75;21520;-59
2021/08/25 02:19:03;;;;;;;9.75;5.65;;;;;;;18.35;78.83;101064.13;1899079;75;21147;-59
2021/08/25 02:21:34;;;;;;;10.10;5.50;;;;;;;18.32;78.81;101062.54;1899190;75;21147;-59
2021/08/25 02:24:03;;;;;;;11.85;5.87;;;;;;;18.29;78.86;101062.25;1898933;75;21042;-59
2021/08/25 02:26:31;;;;;;;12.58;5.47;;;;;;;18.24;78.98;101057.72;1898992;75;21128;-59
2021/08/25 02:29:00;;;;;;;12.60;5.58;;;;;;;18.19;79.08;101061.65;1899108;75;21074;-59
2021/08/25 02:31:30;;;;;;;13.58;6.50;;;;;;;18.15;79.21;101062.33;1899013;75;21049;-59
2021/08/25 02:33:59;;;;;;;12.88;6.08;;;;;;;18.12;79.25;101065.19;1899125;75;21046;-59
2021/08/25 02:36:28;;;;;;;10.90;5.95;;;;;;;18.09;79.32;101072.91;1898906;75;21042;-59
2021/08/25 02:38:56;;;;;;;14.70;5.97;;;;;;;18.08;79.41;101075.67;1899043;75;21469;-59
2021/08/25 02:41:25;;;;;;;12.75;5.80;;;;;;;18.06;79.47;101074.44;1899159;75;21053;-59
2021/08/25 02:43:55;;;;;;;10.58;5.87;;;;;;;18.05;79.53;101072.71;1899017;75;21030;-59
2021/08/25 02:46:23;;;;;;;14.30;6.45;;;;;;;18.03;79.60;101073.29;1897380;75;21595;-59
2021/08/25 02:48:52;;;;;;;12.58;5.72;;;;;;;18.03;79.70;101075.95;1879816;76;21071;-60
2021/08/25 02:51:21;;;;;;;10.43;5.70;;;;;;;18.04;79.80;101077.68;1879777;76;21187;-59
2021/08/25 02:53:49;;;;;;;11.93;6.37;;;;;;;18.04;79.89;101079.02;1879849;76;21120;-59
2021/08/25 02:56:18;;;;;;;12.80;6.90;;;;;;;18.07;79.93;101085.94;1879854;76;21058;-59
2021/08/25 02:58:47;;;;;;;16.65;7.30;;;;;;;18.06;80.03;101083.77;1879858;76;21601;-59
2021/08/25 03:01:16;;;;;;;12.80;7.08;;;;;;;18.06;80.18;101082.43;1879850;76;21127;-59
2021/08/25 03:03:47;;;;;;;12.90;6.70;;;;;;;18.06;80.26;101085.09;1879794;76;21462;-59
2021/08/25 03:06:15;;;;;;;15.30;6.53;;;;;;;18.10;80.32;101087.93;1879742;76;21067;-59
2021/08/25 03:08:43;;;;;;;21.10;7.30;;;;;;;18.14;80.49;101085.44;1879786;76;21046;-58
2021/08/25 03:11:12;;;;;;;12.13;6.62;;;;;;;18.20;80.67;101085.99;1879647;76;21144;-59
2021/08/25 03:13:41;;;;;;;11.63;6.17;;;;;;;18.28;80.89;101085.88;1879676;76;21047;-58
2021/08/25 03:16:10;;;;;;;13.83;6.83;;;;;;;18.35;81.05;101082.30;1879570;76;21074;-59
2021/08/25 03:18:39;;;;;;;11.40;6.85;;;;;;;18.45;81.11;101087.42;1879639;76;21555;-59
2021/08/25 03:21:09;;;;;;;11.20;7.40;;;;;;;18.57;81.08;101074.22;1879638;76;21093;-59
2021/08/25 03:23:38;;;;;;;15.10;6.75;;;;;;;18.71;81.00;101084.81;1879630;76;21106;-59
2021/08/25 03:26:07;;;;;;;12.73;7.05;;;;;;;18.83;80.81;101084.02;1879727;76;21015;-59
2021/08/25 03:28:35;;;;;;;17.65;7.03;;;;;;;18.96;80.55;101080.48;1879575;76;21049;-60
2021/08/25 03:31:05;;;;;;;12.50;6.12;;;;;;;19.08;80.31;101075.64;1879668;76;21062;-59
2021/08/25 03:33:34;;;;;;;13.65;6.83;;;;;;;19.20;80.09;101080.59;1879669;76;21531;-59
2021/08/25 03:36:02;;;;;;;13.22;7.58;;;;;;;19.34;79.85;101078.30;1879569;76;21549;-59
2021/08/25 03:38:31;;;;;;;19.98;7.47;;;;;;;19.43;79.56;101073.65;1879618;76;21112;-59
2021/08/25 03:41:00;;;;;;;16.00;6.72;;;;;;;19.53;79.04;101084.06;1879589;76;21149;-61
2021/08/25 03:43:29;;;;;;;12.68;7.15;;;;;;;19.66;78.58;101078.20;1879620;76;21110;-59
2021/08/25 03:45:57;;;;;;;11.68;6.30;;;;;;;19.84;78.36;101073.84;1879694;76;21085;-59
2021/08/25 03:48:26;;;;;;;13.50;6.20;;;;;;;20.15;77.60;101069.77;1879596;75;21055;-60
2021/08/25 03:50:54;;;;;;;12.47;6.20;;;;;;;20.38;77.08;101073.42;1879653;76;21034;-60
2021/08/25 03:53:23;;;;;;;14.40;6.80;;;;;;;20.62;76.53;101064.55;1879780;76;21058;-59
2021/08/25 03:55:52;;;;;;;10.53;5.35;;;;;;;20.88;75.94;101067.02;1879652;76;21022;-59
2021/08/25 03:58:21;;;;;;;11.48;6.08;;;;;;;21.14;75.36;101067.19;1879617;76;21107;-59
2021/08/25 04:00:52;;;;;;;12.63;4.55;;;;;;;21.42;74.70;101070.36;1879647;76;21058;-60
2021/08/25 04:03:21;;;;;;;12.78;5.17;;;;;;;21.66;74.00;101066.73;1879705;76;21074;-59
2021/08/25 04:05:49;;;;;;;11.05;5.05;;;;;;;21.87;73.21;101070.33;1879647;76;21069;-59
2021/08/25 04:08:18;;;;;;;11.38;5.30;;;;;;;22.08;72.58;101063.70;1879613;76;21055;-59
2021/08/25 04:10:46;;;;;;;8.98;4.90;;;;;;;22.32;72.01;101062.19;1879675;76;21046;-60
2021/08/25 04:13:15;;;;;;;8.80;4.10;;;;;;;22.47;70.91;101060.54;1879647;76;21145;-60
2021/08/25 04:15:44;;;;;;;7.87;3.90;;;;;;;22.57;69.57;101053.39;1879755;76;21019;-59
2021/08/25 04:18:13;;;;;;;9.23;4.58;;;;;;;22.71;69.33;101059.79;1879699;76;21031;-59
2021/08/25 04:20:42;;;;;;;8.55;3.87;;;;;;;22.90;68.84;101057.70;1879654;76;21074;-60
2021/08/25 04:23:10;;;;;;;10.60;4.60;;;;;;;23.11;68.27;101055.52;1879716;76;21053;-59
2021/08/25 04:25:41;;;;;;;10.85;4.10;;;;;;;23.25;67.25;101054.33;1879612;76;21133;-59
2021/08/25 04:28:10;;;;;;;13.58;4.97;;;;;;;23.43;66.48;101055.89;1879594;76;21047;-59
2021/08/25 04:30:39;;;;;;;15.00;5.35;;;;;;;23.66;66.10;101059.20;1879717;76;21575;-59
2021/08/25 04:33:08;;;;;;;11.78;4.65;;;;;;;23.84;64.90;101060.77;1879524;76;21545;-60
2021/08/25 04:35:37;;;;;;;6.25;3.70;;;;;;;23.93;64.22;101055.06;1879754;76;21160;-60
2021/08/25 04:38:06;;;;;;;7.42;3.87;;;;;;;23.93;62.87;101051.03;1879684;76;21039;-59
2021/08/25 04:40:35;;;;;;;9.18;3.72;;;;;;;24.10;62.88;101053.02;1879647;76;21105;-59
2021/08/25 04:43:04;;;;;;;10.82;4.40;;;;;;;24.21;62.52;101058.25;1879668;76;21493;-60
2021/08/25 04:45:33;;;;;;;7.92;3.60;;;;;;;24.39;62.58;101055.72;1879746;76;21108;-60
2021/08/25 04:48:01;;;;;;;9.60;3.70;;;;;;;24.57;61.68;101049.16;1882442;75;21141;-60
2021/08/25 04:50:30;;;;;;;7.42;3.62;;;;;;;24.64;60.69;101050.75;1898883;75;21069;-59
2021/08/25 04:52:59;;;;;;;7.25;4.00;;;;;;;24.63;59.57;101045.88;1898920;75;21065;-59
2021/08/25 04:55:29;;;;;;;6.17;3.80;;;;;;;24.73;59.76;101047.70;1898818;75;21317;-60
2021/08/25 04:57:57;;;;;;;6.97;4.00;;;;;;;24.81;58.98;101043.80;1898848;75;21033;-59
2021/08/25 05:00:26;;;;;;;4.65;3.60;;;;;;;24.86;58.62;101041.50;1898727;75;21140;-60
2021/08/25 05:02:55;;;;;;;7.53;3.58;;;;;;;25.02;58.69;101039.05;1898831;75;21132;-59
2021/08/25 05:05:24;;;;;;;9.05;3.52;;;;;;;25.09;57.82;101040.66;1898817;75;21006;-59
2021/08/25 05:07:53;;;;;;;7.95;3.65;;;;;;;25.17;57.25;101039.41;1898750;75;21083;-60
2021/08/25 05:10:21;;;;;;;4.92;3.30;;;;;;;25.20;56.49;101028.86;1898772;75;21045;-60
2021/08/25 05:12:50;;;;;;;8.10;3.58;;;;;;;25.33;56.78;101030.73;1898881;75;21061;-60
2021/08/25 05:15:19;;;;;;;6.33;3.20;;;;;;;25.43;56.32;101024.81;1898757;75;21165;-60
2021/08/25 05:17:48;;;;;;;7.47;4.15;;;;;;;25.58;56.21;101025.62;1898892;75;21046;-60
2021/08/25 05:20:16;;;;;;;5.72;3.45;;;;;;;25.78;56.20;101028.58;1898884;75;21050;-60
2021/08/25 05:22:45;;;;;;;4.42;2.87;;;;;;;26.00;55.06;101023.24;1898782;75;21061;-59
2021/08/25 05:25:14;;;;;;;8.63;3.22;;;;;;;26.04;54.04;101029.18;1898859;75;21041;-60
2021/08/25 05:27:42;;;;;;;8.78;3.05;;;;;;;26.05;53.31;101025.49;1898740;75;21121;-59
2021/08/25 05:30:12;;;;;;;6.80;3.20;;;;;;;25.99;52.14;101023.42;1898810;75;21038;-60
2021/08/25 05:32:41;;;;;;;8.48;3.45;;;;;;;25.97;52.10;101026.78;1898802;75;21002;-60
2021/08/25 05:35:11;;;;;;;9.75;2.72;;;;;;;26.03;52.25;101024.80;1898764;75;21042;-60
2021/08/25 05:37:39;;;;;;;9.20;3.15;;;;;;;26.21;52.42;101020.77;1898956;75;21045;-59
2021/08/25 05:40:09;;;;;;;5.25;3.17;;;;;;;26.41;51.88;101017.36;1898813;75;21219;-60
2021/08/25 05:42:37;;;;;;;7.10;3.17;;;;;;;26.59;51.55;101012.77;1898810;75;21146;-59
2021/08/25 05:45:07;;;;;;;4.47;3.12;;;;;;;26.69;50.47;101019.47;1898781;75;21041;-60
2021/08/25 05:47:37;;;;;;;4.53;2.52;;;;;;;26.70;49.86;101019.80;1898859;75;21124;-60
2021/08/25 05:50:09;;;;;;;5.08;3.05;;;;;;;26.68;50.30;101010.17;1883541;75;21105;-59
2021/08/25 05:52:38;;;;;;;5.33;2.85;;;;;;;26.58;49.57;101013.79;1879763;76;21122;-60
2021/08/25 05:55:07;;;;;;;5.42;3.25;;;;;;;26.73;49.75;101010.03;1879612;76;21497;-59
2021/08/25 05:57:41;;;;;;;5.67;3.10;;;;;;;26.77;49.02;101020.02;1879705;76;21015;-60
2021/08/25 06:00:07;;;;;;;6.42;2.92;;;;;;;26.80;49.28;101021.55;1879032;76;21054;-60
2021/08/25 06:02:37;;;;;;;5.67;3.55;;;;;;;26.98;49.44;101013.39;1879557;76;21525;-59
2021/08/25 06:05:06;;;;;;;5.67;3.50;;;;;;;27.23;49.24;101013.02;1879495;76;21102;-60
2021/08/25 06:07:34;;;;;;;9.63;3.85;;;;;;;27.37;48.75;101012.92;1879566;76;21093;-60
2021/08/25 06:10:04;;;;;;;7.35;3.27;;;;;;;27.50;48.58;101013.30;1879573;76;21038;-60
2021/08/25 06:12:35;;;;;;;7.95;3.30;;;;;;;27.73;48.55;101014.89;1879587;76;21067;-60
2021/08/25 06:15:04;;;;;;;5.80;4.03;;;;;;;27.98;48.15;101013.13;1879576;76;21074;-60
2021/08/25 06:17:33;;;;;;;10.53;3.45;;;;;;;27.98;46.95;101013.61;1879579;76;21046;-60
2021/08/25 06:20:02;;;;;;;4.92;3.42;;;;;;;28.04;47.51;101015.66;1879567;76;21071;-60
2021/08/25 06:22:31;;;;;;;6.72;3.52;;;;;;;28.27;47.43;101018.53;1879806;76;21067;-60
2021/08/25 06:25:00;;;;;;;7.67;3.37;;;;;;;28.42;47.00;101020.92;1879541;76;21517;-60
2021/08/25 06:27:29;;;;;;;7.03;3.72;;;;;;;28.54;46.67;101016.02;1879648;76;21089;-60
2021/08/25 06:29:57;;;;;;;7.55;3.37;;;;;;;28.64;46.08;101013.13;1879530;76;21125;-59
2021/08/25 06:32:26;;;;;;;6.78;3.08;;;;;;;28.76;46.55;101013.11;1879571;76;21046;-60
2021/08/25 06:34:56;;;;;;;8.20;3.37;;;;;;;29.01;46.36;101018.45;1879558;76;21047;-60
2021/08/25 06:37:25;;;;;;;6.12;3.05;;;;;;;28.88;44.77;101017.64;1879673;76;21047;-60
2021/08/25 06:39:54;;;;;;;9.50;3.52;;;;;;;28.81;45.71;101014.80;1879620;76;21113;-59
2021/08/25 06:42:22;;;;;;;6.97;3.27;;;;;;;29.10;45.57;101021.99;1879694;76;21026;-60
2021/08/25 06:44:51;;;;;;;8.75;3.70;;;;;;;29.23;45.67;101016.89;1879690;76;21149;-59
2021/08/25 06:47:20;;;;;;;8.55;4.15;;;;;;;29.38;44.65;101014.27;1879641;76;21046;-60
2021/08/25 06:49:48;;;;;;;7.78;3.37;;;;;;;29.39;44.59;101020.05;1885320;75;21105;-59
2021/08/25 06:52:17;;;;;;;9.28;3.83;;;;;;;29.50;44.28;101019.66;1898933;75;21038;-59
2021/08/25 06:54:45;;;;;;;8.43;3.98;;;;;;;29.52;43.56;101015.41;1898954;75;21120;-60
2021/08/25 06:57:14;;;;;;;6.45;3.15;;;;;;;29.57;43.85;101005.71;1898817;75;21116;-60
2021/08/25 06:59:43;;;;;;;8.18;3.42;;;;;;;29.67;43.47;101008.19;1899010;75;21120;-60
2021/08/25 07:02:11;;;;;;;6.75;3.35;;;;;;;29.78;43.77;101015.11;1898811;75;21014;-60
2021/08/25 07:04:49;;;;;;;14.63;4.50;;;;;;;30.00;43.76;101011.56;1899041;75;21050;-60
2021/08/25 07:07:10;;;;;;;9.15;3.00;;;;;;;30.30;43.64;101009.46;1895729;75;21034;-60
2021/08/25 07:09:39;;;;;;;8.25;4.03;;;;;;;30.61;43.34;101008.02;1898941;75;21089;-60
2021/08/25 07:12:08;;;;;;;13.60;3.65;;;;;;;30.73;42.91;101006.54;1898983;75;21017;-60
2021/08/25 07:14:37;;;;;;;6.67;3.52;;;;;;;30.94;42.63;101004.98;1898931;75;21453;-60
2021/08/25 07:17:06;;;;;;;6.50;3.40;;;;;;;31.09;41.76;101003.09;1898854;75;21536;-59
2021/08/25 07:19:34;;;;;;;5.87;3.72;;;;;;;31.15;41.59;101004.21;1898832;75;21034;-60
2021/08/25 07:22:03;;;;;;;6.65;3.25;;;;;;;31.24;41.69;101002.23;1898757;75;21646;-60
2021/08/25 07:24:32;;;;;;;7.58;3.52;;;;;;;31.45;41.21;101000.08;1898938;75;21142;-60
2021/08/25 07:27:01;;;;;;;5.30;3.37;;;;;;;31.72;40.93;101000.77;1898841;75;21090;-59
2021/08/25 07:29:30;;;;;;;8.80;3.70;;;;;;;31.85;40.22;101002.75;1898934;75;21126;-60
2021/08/25 07:32:04;;;;;;;7.10;3.40;;;;;;;32.11;40.24;100998.64;1898852;75;21069;-60
2021/08/25 07:34:30;;;;;;;4.90;3.12;;;;;;;32.26;39.77;100993.97;1897923;75;21105;-60
2021/08/25 07:37:00;;;;;;;6.87;3.77;;;;;;;32.38;39.46;100993.43;1898840;75;21042;-60
2021/08/25 07:39:29;;;;;;;8.13;3.90;;;;;;;32.18;38.63;100990.01;1898947;75;21050;-60
2021/08/25 07:41:58;;;;;;;5.90;3.80;;;;;;;32.08;39.02;100999.05;1898828;75;21499;-59
2021/08/25 07:44:27;;;;;;;4.97;2.98;;;;;;;32.04;39.20;100997.73;1898845;75;21623;-60
2021/08/25 07:46:56;;;;;;;7.35;3.70;;;;;;;32.03;39.04;100987.89;1898728;75;21062;-60
2021/08/25 07:49:25;;;;;;;6.47;3.42;;;;;;;32.02;39.22;100984.80;1898844;75;21196;-60
2021/08/25 07:51:54;;;;;;;8.20;3.95;;;;;;;32.20;39.12;100981.12;1898912;75;21141;-59
2021/08/25 07:54:23;;;;;;;7.60;3.70;;;;;;;32.38;38.91;100983.89;1898813;75;21077;-59
2021/08/25 07:56:52;;;;;;;4.78;2.87;;;;;;;32.69;39.01;100981.63;1899025;75;21174;-59
2021/08/25 07:59:21;;;;;;;4.97;2.75;;;;;;;33.02;38.64;100987.79;1898813;75;21078;-60
2021/08/25 08:01:49;;;;;;;5.90;3.50;;;;;;;33.05;38.26;100987.40;1898878;75;21175;-60
2021/08/25 08:04:18;;;;;;;5.70;3.58;;;;;;;32.87;37.98;100983.84;1898832;75;21147;-60
2021/08/25 08:06:47;;;;;;;5.62;3.10;;;;;;;32.98;38.14;100983.79;1899048;75;21042;-60
2021/08/25 08:09:16;;;;;;;10.08;3.00;;;;;;;33.04;38.29;100981.61;1898799;75;21602;-60
2021/08/25 08:11:45;;;;;;;7.33;3.55;;;;;;;33.03;37.71;100973.63;1898834;75;21053;-60
2021/08/25 08:14:14;;;;;;;4.42;3.22;;;;;;;32.71;37.79;100973.25;1898709;75;21136;-60
2021/08/25 08:16:45;;;;;;;6.60;3.75;;;;;;;32.69;37.88;100965.27;1898781;75;21089;-60
2021/08/25 08:19:29;;;;;;;7.05;3.60;;;;;;;32.72;38.12;100973.58;1898787;75;21111;-60
2021/08/25 08:21:52;;;;;;;4.90;3.37;;;;;;;32.82;38.21;100969.13;1897172;75;21066;-60
2021/08/25 08:24:21;;;;;;;5.40;3.55;;;;;;;33.03;38.13;100969.00;1898829;75;21081;-59
2021/08/25 08:26:50;;;;;;;6.08;3.17;;;;;;;33.10;37.86;100970.41;1898712;75;21137;-60
2021/08/25 08:29:19;;;;;;;5.30;3.75;;;;;;;33.14;37.83;100966.78;1898764;75;21110;-60
2021/08/25 08:31:48;;;;;;;7.67;3.37;;;;;;;33.32;37.91;100964.34;1899035;75;21140;-60
2021/08/25 08:34:16;;;;;;;8.00;3.50;;;;;;;33.40;37.96;100968.27;1898810;75;21467;-60
2021/08/25 08:36:45;;;;;;;8.28;3.70;;;;;;;33.36;37.60;100966.13;1898814;75;21041;-60
2021/08/25 08:39:14;;;;;;;5.35;3.50;;;;;;;33.39;38.08;100959.74;1898658;75;21484;-60
2021/08/25 08:41:43;;;;;;;9.60;3.37;;;;;;;33.60;37.96;100960.09;1898820;75;21563;-60
2021/08/25 08:44:14;;;;;;;8.88;3.90;;;;;;;33.73;37.52;100962.05;1898788;75;21586;-60
2021/08/25 08:46:44;;;;;;;7.90;3.85;;;;;;;33.82;36.98;100952.60;1898435;75;21496;-59
2021/08/25 08:49:15;;;;;;;6.50;3.65;;;;;;;33.85;37.20;100954.09;1898721;75;21566;-59
2021/08/25 08:51:44;;;;;;;9.78;4.90;;;;;;;33.95;37.33;100959.14;1898431;75;21089;-60
2021/08/25 08:54:13;;;;;;;11.12;5.12;;;;;;;33.88;36.81;100949.56;1898747;75;21136;-60
2021/08/25 08:56:42;;;;;;;6.58;4.28;;;;;;;34.06;37.01;100950.31;1898777;75;21457;-60
2021/08/25 08:59:10;;;;;;;10.40;4.50;;;;;;;34.21;36.66;100946.03;1898810;75;21174;-60
2021/08/25 09:01:39;;;;;;;5.75;4.10;;;;;;;34.28;37.11;100936.47;1898886;75;21104;-60
2021/08/25 09:04:27;;;;;;;7.60;4.80;;;;;;;34.45;37.10;100939.59;1898671;75;21136;-61
2021/08/25 09:06:56;;;;;;;6.58;4.55;;;;;;;34.30;36.89;100940.66;1898895;75;21066;-60
2021/08/25 09:09:24;;;;;;;6.47;4.55;;;;;;;34.32;36.78;100933.62;1898765;75;21461;-60
2021/08/25 09:11:56;;;;;;;8.45;4.28;;;;;;;34.27;36.73;100934.78;1898820;75;21038;-59
2021/08/25 09:14:28;;;;;;;7.87;4.45;;;;;;;34.12;36.85;100939.90;1898899;75;21026;-61
2021/08/25 09:17:04;;;;;;;10.38;4.58;;;;;;;34.06;37.18;100938.02;1898892;75;21075;-60
2021/08/25 09:19:35;;;;;;;7.60;3.70;;;;;;;34.17;37.35;100933.31;1898927;75;21124;-59
2021/08/25 09:22:07;;;;;;;6.75;4.80;;;;;;;34.21;37.20;100926.40;1898948;75;21131;-60
2021/08/25 09:24:41;;;;;;;5.90;3.50;;;;;;;34.07;36.86;100920.59;1896877;75;21022;-60
2021/08/25 09:27:15;;;;;;;7.00;4.08;;;;;;;34.06;37.35;100930.36;1898670;75;21131;-60
2021/08/25 09:29:46;;;;;;;7.62;4.50;;;;;;;34.06;37.35;100921.63;1898760;75;21034;-60
2021/08/25 09:32:24;;;;;;;9.43;5.15;;;;;;;34.11;37.11;100916.38;1897459;75;21143;-60
2021/08/25 09:35:00;;;;;;;13.43;5.55;;;;;;;34.09;37.39;100920.38;1898807;75;21054;-60
2021/08/25 09:37:31;;;;;;;8.58;5.20;;;;;;;34.05;37.57;100919.97;1898673;75;21033;-61
2021/08/25 09:40:02;;;;;;;8.33;5.12;;;;;;;33.91;37.32;100918.28;1898866;75;21045;-60
2021/08/25 09:42:42;;;;;;;10.20;4.83;;;;;;;33.61;37.41;100913.19;1899082;75;21143;-60
2021/08/25 09:45:14;;;;;;;8.63;4.75;;;;;;;33.61;38.16;100909.09;1898832;75;21078;-60
2021/08/25 09:47:51;;;;;;;8.23;3.58;;;;;;;33.77;37.78;100900.53;1898917;75;21105;-60
2021/08/25 09:50:22;;;;;;;8.73;4.42;;;;;;;33.68;37.75;100911.34;1898890;75;21170;-60
2021/08/25 09:52:51;;;;;;;9.88;4.95;;;;;;;33.58;38.18;100911.70;1890298;75;21114;-60
2021/08/25 09:55:36;;;;;;;7.30;4.58;;;;;;;33.70;38.24;100907.87;1879685;76;21469;-60
2021/08/25 09:58:08;;;;;;;6.70;4.58;;;;;;;33.60;37.90;100900.04;1879596;76;21066;-60
2021/08/25 10:00:36;;;;;;;15.18;4.80;;;;;;;33.54;38.88;100891.86;1878460;76;21050;-60
2021/08/25 10:03:05;;;;;;;10.68;4.75;;;;;;;33.69;38.64;100890.33;1879584;76;21067;-60
2021/08/25 10:05:34;;;;;;;9.40;4.33;;;;;;;33.85;38.80;100889.39;1879577;76;21140;-60
2021/08/25 10:08:05;;;;;;;8.88;4.40;;;;;;;33.89;38.13;100885.70;1879564;76;21567;-60
2021/08/25 10:10:34;;;;;;;8.45;4.35;;;;;;;33.95;38.39;100888.13;1879536;76;21050;-60
2021/08/25 10:13:05;;;;;;;12.47;4.70;;;;;;;33.89;38.72;100882.98;1878738;76;21099;-60
2021/08/25 10:15:44;;;;;;;9.30;4.12;;;;;;;34.02;38.88;100880.77;1879068;76;21558;-60
2021/08/25 10:18:11;;;;;;;;;;;;;;;34.13;38.45;100877.39;1881112;76;21066;-60
2021/08/25 10:20:39;;;;;;;7.80;3.42;;;;;;;34.02;38.27;100881.59;1877204;75;20155;-60
2021/08/25 10:23:08;;;;;;;8.00;4.20;;;;;;;33.90;38.25;100885.17;1879814;76;21023;-60
2021/08/25 10:25:56;;;;;;;7.97;4.25;;;;;;;33.65;38.15;100880.35;1879632;76;21592;-60
2021/08/25 10:28:25;;;;;;;7.95;3.80;;;;;;;33.45;38.18;100876.20;1879622;76;21129;-60
2021/08/25 10:30:57;;;;;;;7.10;4.30;;;;;;;33.23;38.63;100882.34;1879742;76;21168;-60
2021/08/25 10:33:26;;;;;;;10.75;4.40;;;;;;;33.24;39.09;100881.31;1879819;76;21122;-60
2021/08/25 10:35:54;;;;;;;6.78;4.20;;;;;;;33.29;39.13;100881.52;1879539;76;21023;-60
2021/08/25 10:38:31;;;;;;;10.88;5.05;;;;;;;33.21;38.93;100877.63;1879674;76;21536;-60
2021/08/25 10:41:21;;;;;;;11.90;5.35;;;;;;;33.12;39.15;100876.96;1879781;76;21066;-60
2021/08/25 10:43:50;;;;;;;6.42;3.92;;;;;;;33.04;39.35;100862.95;1901734;75;21059;-59
2021/08/25 10:46:19;;;;;;;9.38;4.03;;;;;;;32.85;39.44;100868.67;1912422;75;21033;-60
2021/08/25 10:48:56;;;;;;;6.55;4.83;;;;;;;32.73;39.92;100866.20;1861170;77;21471;-59
2021/08/25 10:51:31;;;;;;;6.33;4.00;;;;;;;32.60;39.90;100862.89;1915651;75;21055;-58
2021/08/25 10:54:02;;;;;;;8.10;4.15;;;;;;;32.51;40.10;100861.34;1861227;75;21074;-59
2021/08/25 10:56:37;;;;;;;7.62;3.92;;;;;;;32.42;40.48;100868.00;1915571;75;21059;-59
2021/08/25 10:59:11;;;;;;;8.08;5.37;;;;;;;32.22;40.49;100859.70;1861324;77;21176;-59
2021/08/25 11:01:45;;;;;;;10.75;4.40;;;;;;;32.13;40.84;100858.52;1915727;75;21517;-59
2021/08/25 11:04:19;;;;;;;7.22;4.22;;;;;;;32.10;40.52;100851.25;1861271;77;21114;-59
2021/08/25 11:06:52;;;;;;;11.50;4.25;;;;;;;32.06;40.79;100848.09;1915600;75;21470;-59
2021/08/25 11:09:38;;;;;;;9.95;4.60;;;;;;;32.07;41.05;100855.20;1861188;77;21394;-59
2021/08/25 11:12:18;;;;;;;8.53;4.60;;;;;;;32.06;41.08;100849.98;1915555;75;21059;-59
2021/08/25 11:14:51;;;;;;;7.70;4.17;;;;;;;31.89;41.18;100847.52;1861178;77;21022;-59
2021/08/25 11:17:33;;;;;;;7.75;3.47;;;;;;;31.67;41.64;100848.57;1915626;75;20999;-59
2021/08/25 11:20:10;;;;;;;7.53;3.80;;;;;;;31.59;42.19;100853.64;1861195;77;21618;-59
2021/08/25 11:22:40;;;;;;;6.47;3.83;;;;;;;31.38;42.30;100850.39;1915671;75;21039;-59
2021/08/25 11:25:12;;;;;;;8.20;3.47;;;;;;;31.24;42.83;100847.20;1861185;77;21051;-59
2021/08/25 11:27:47;;;;;;;7.65;3.50;;;;;;;31.21;43.04;100848.44;1915547;75;21035;-59
2021/08/25 11:30:29;;;;;;;5.58;4.10;;;;;;;31.17;43.24;100847.98;1861067;77;21046;-59
2021/08/25 11:33:09;;;;;;;7.15;3.50;;;;;;;31.06;43.01;100841.70;1915704;75;21041;-59
2021/08/25 11:35:45;;;;;;;6.33;3.80;;;;;;;30.89;43.18;100841.55;1861201;77;21047;-58